Time;durP1;ratioP1;P1;durP2;ratioP2;P2;SDS_P1;SDS_P2;PMS_P1;PMS_P2;Temp;Humidity;BMP_temperature;BMP_pressure;BME280_temperature;BME280_humidity;BME280_pressure;Samples;Min_cycle;Max_cycle;Signal;HPM_P1;HPM_P2
2020/12/21 00:01:13;;;;;;;22.08;11.00;;;6.80;99.90;;;;;;5007668;28;20079;-65
2020/12/21 00:03:38;;;;;;;17.90;10.10;;;6.80;99.90;;;;;;5007536;28;20026;-65
2020/12/21 00:06:15;;;;;;;22.60;9.25;;;6.80;99.90;;;;;;5024226;28;20169;-67
2020/12/21 00:08:43;;;;;;;20.42;11.05;;;6.80;99.90;;;;;;5009186;28;20088;-66
2020/12/21 00:11:09;;;;;;;20.75;9.60;;;6.80;99.90;;;;;;5009325;28;20064;-68
2020/12/21 00:13:44;;;;;;;22.15;10.98;;;6.80;99.90;;;;;;5009063;28;20042;-69
2020/12/21 00:16:11;;;;;;;26.90;12.10;;;6.70;99.90;;;;;;5010841;28;20030;-68
2020/12/21 00:18:38;;;;;;;21.40;9.43;;;6.70;99.90;;;;;;5009699;28;20080;-69
2020/12/21 00:21:04;;;;;;;25.67;9.65;;;6.80;99.90;;;;;;5009530;28;20029;-68
2020/12/21 00:23:30;;;;;;;21.00;9.27;;;6.70;99.90;;;;;;5009741;28;20030;-67
2020/12/21 00:25:56;;;;;;;25.58;9.93;;;6.70;99.90;;;;;;4991754;28;20026;-66
2020/12/21 00:28:22;;;;;;;18.30;8.70;;;6.70;99.90;;;;;;5008831;28;20030;-66
2020/12/21 00:30:47;;;;;;;25.05;11.93;;;6.70;99.90;;;;;;5007248;28;20081;-69
2020/12/21 00:33:13;;;;;;;24.20;10.90;;;6.70;99.90;;;;;;5008729;28;20092;-66
2020/12/21 00:35:42;;;;;;;23.45;9.13;;;6.70;99.90;;;;;;5008502;28;20108;-66
2020/12/21 00:38:08;;;;;;;21.08;9.02;;;6.70;99.90;;;;;;5007345;28;20119;-67
2020/12/21 00:40:34;;;;;;;22.70;9.10;;;6.70;99.90;;;;;;5007009;28;20537;-68
2020/12/21 00:43:00;;;;;;;23.98;8.40;;;6.60;99.90;;;;;;5008213;28;20335;-67
2020/12/21 00:45:26;;;;;;;17.45;8.20;;;6.70;99.90;;;;;;5009148;28;20428;-67
2020/12/21 00:47:52;;;;;;;19.83;8.80;;;6.60;99.90;;;;;;5048702;22;20053;-63
2020/12/21 00:50:18;;;;;;;26.02;8.57;;;6.60;99.90;;;;;;5014734;28;20386;-63
2020/12/21 00:52:44;;;;;;;18.42;8.30;;;6.70;99.90;;;;;;5031845;28;20053;-65
2020/12/21 00:55:09;;;;;;;21.30;9.00;;;6.60;99.90;;;;;;5015227;28;20128;-64
2020/12/21 00:57:35;;;;;;;20.88;8.50;;;6.60;99.90;;;;;;5033142;28;20040;-64
2020/12/21 01:00:03;;;;;;;22.55;10.23;;;6.60;99.90;;;;;;5033792;28;20048;-65
2020/12/21 01:02:28;;;;;;;20.23;8.98;;;6.60;99.90;;;;;;5016336;28;20097;-65
2020/12/21 01:04:54;;;;;;;22.90;8.55;;;6.60;99.90;;;;;;5032657;28;20068;-65
2020/12/21 01:07:20;;;;;;;22.33;8.88;;;6.60;99.90;;;;;;5033970;28;20083;-65
2020/12/21 01:09:46;;;;;;;20.88;9.80;;;6.50;99.90;;;;;;5032970;28;20038;-65
2020/12/21 01:12:13;;;;;;;21.33;8.90;;;6.50;99.90;;;;;;5016071;28;20033;-65
2020/12/21 01:14:39;;;;;;;20.42;9.07;;;6.40;99.90;;;;;;5033451;28;20236;-63
2020/12/21 01:17:06;;;;;;;19.35;9.25;;;6.40;99.90;;;;;;5033549;28;20049;-64
2020/12/21 01:19:32;;;;;;;20.60;9.07;;;6.40;99.90;;;;;;5032774;28;20017;-65
2020/12/21 01:21:58;;;;;;;22.85;9.68;;;6.40;99.90;;;;;;5015193;28;20021;-65
2020/12/21 01:24:24;;;;;;;21.73;9.73;;;6.30;99.90;;;;;;5033385;28;20048;-66
2020/12/21 01:26:49;;;;;;;22.50;9.50;;;6.30;99.90;;;;;;5032934;28;20033;-63
2020/12/21 01:29:15;;;;;;;24.73;9.60;;;6.40;99.90;;;;;;5033032;28;20049;-65
2020/12/21 01:31:41;;;;;;;21.80;9.75;;;6.50;99.90;;;;;;5015562;28;20029;-65
2020/12/21 01:34:07;;;;;;;20.15;9.18;;;6.40;99.90;;;;;;5033868;28;20021;-64
2020/12/21 01:36:32;;;;;;;22.23;8.77;;;6.40;99.90;;;;;;5037234;28;20040;-64
2020/12/21 01:38:58;;;;;;;24.02;8.90;;;6.30;99.90;;;;;;5036272;28;20029;-65
2020/12/21 01:41:24;;;;;;;22.30;8.85;;;6.30;99.90;;;;;;5037018;28;20096;-65
2020/12/21 01:43:55;;;;;;;24.00;9.15;;;6.30;99.90;;;;;;5037123;28;20112;-65
2020/12/21 01:46:22;;;;;;;21.75;9.95;;;6.20;99.90;;;;;;5037042;28;20029;-64
2020/12/21 01:48:47;;;;;;;19.15;8.98;;;6.20;99.90;;;;;;5035027;28;20029;-65
2020/12/21 01:51:21;;;;;;;22.70;9.45;;;6.20;99.90;;;;;;5036585;28;20026;-65
2020/12/21 01:53:47;;;;;;;20.85;9.02;;;6.10;99.90;;;;;;5035597;28;20095;-65
2020/12/21 01:56:16;;;;;;;26.98;9.25;;;6.10;99.90;;;;;;5036839;28;20144;-66
2020/12/21 01:58:42;;;;;;;;;;;6.00;99.90;;;;;;5036618;28;20380;-65
2020/12/21 02:01:07;;;;;;;19.08;8.73;;;6.00;99.90;;;;;;5036906;28;19909;-64
2020/12/21 02:03:33;;;;;;;23.95;9.32;;;6.00;99.90;;;;;;5035069;28;20021;-64
2020/12/21 02:05:59;;;;;;;25.63;9.85;;;6.00;99.90;;;;;;5035110;28;20104;-65
2020/12/21 02:08:27;;;;;;;22.20;9.25;;;6.00;99.90;;;;;;5035871;28;20392;-65
2020/12/21 02:10:52;;;;;;;23.95;9.63;;;6.00;99.90;;;;;;5036377;28;20025;-63
2020/12/21 02:13:18;;;;;;;21.02;8.93;;;5.90;99.90;;;;;;5036377;28;20093;-64
2020/12/21 02:15:44;;;;;;;24.58;9.25;;;6.00;99.90;;;;;;5035206;28;20231;-64
2020/12/21 02:18:10;;;;;;;25.52;10.55;;;5.90;99.90;;;;;;5036208;28;20389;-64
2020/12/21 02:20:36;;;;;;;18.20;9.90;;;6.00;99.90;;;;;;5035721;28;20093;-65
2020/12/21 02:23:02;;;;;;;22.08;10.20;;;6.00;99.90;;;;;;5019540;28;20591;-63
2020/12/21 02:25:27;;;;;;;22.73;9.25;;;6.00;99.90;;;;;;5018736;28;20488;-65
2020/12/21 02:27:54;;;;;;;22.33;8.98;;;5.90;99.90;;;;;;5036378;28;20029;-65
2020/12/21 02:30:20;;;;;;;24.52;9.55;;;5.90;99.90;;;;;;5035512;28;20025;-65
2020/12/21 02:32:46;;;;;;;23.00;9.60;;;5.90;99.90;;;;;;5036509;28;20025;-64
2020/12/21 02:35:12;;;;;;;20.13;8.80;;;5.90;99.90;;;;;;5035748;28;20477;-65
2020/12/21 02:37:38;;;;;;;24.75;10.32;;;5.90;99.90;;;;;;5017826;28;20025;-63
2020/12/21 02:40:07;;;;;;;23.25;9.10;;;5.90;99.90;;;;;;5035437;28;20080;-65
2020/12/21 02:42:34;;;;;;;22.75;8.68;;;5.80;99.90;;;;;;5036462;28;20032;-66
2020/12/21 02:45:01;;;;;;;19.73;8.73;;;5.80;99.90;;;;;;5036000;28;20025;-66
2020/12/21 02:47:27;;;;;;;19.65;8.45;;;5.70;99.90;;;;;;5036252;28;20526;-65
2020/12/21 02:49:53;;;;;;;22.88;9.40;;;5.70;99.90;;;;;;5034925;28;20036;-64
2020/12/21 02:52:18;;;;;;;19.95;8.68;;;5.60;99.90;;;;;;5036102;28;20029;-65
2020/12/21 02:54:48;;;;;;;23.73;9.30;;;5.60;99.90;;;;;;5036076;28;20033;-65
2020/12/21 02:57:14;;;;;;;21.48;9.50;;;5.50;99.90;;;;;;5036267;28;20029;-63
2020/12/21 02:59:40;;;;;;;20.40;9.35;;;5.50;99.90;;;;;;5034051;28;20029;-63
2020/12/21 03:02:06;;;;;;;24.38;10.43;;;5.50;99.90;;;;;;5035873;28;20096;-64
2020/12/21 03:04:31;;;;;;;20.00;10.65;;;5.60;99.90;;;;;;5017971;28;20558;-65
2020/12/21 03:06:58;;;;;;;29.00;11.05;;;5.60;99.90;;;;;;5034876;28;20029;-64
2020/12/21 03:09:23;;;;;;;20.15;9.05;;;5.50;99.90;;;;;;5034029;28;20022;-64
2020/12/21 03:11:49;;;;;;;23.02;9.57;;;5.50;99.90;;;;;;5035403;28;20029;-65
2020/12/21 03:14:15;;;;;;;18.45;8.65;;;5.50;99.90;;;;;;5017459;28;20405;-65
2020/12/21 03:16:40;;;;;;;24.30;9.38;;;5.50;99.90;;;;;;5035505;28;20049;-66
2020/12/21 03:19:06;;;;;;;21.02;8.77;;;5.40;99.90;;;;;;5034529;28;20048;-66
2020/12/21 03:21:32;;;;;;;17.67;8.75;;;5.40;99.90;;;;;;5017289;28;20049;-65
2020/12/21 03:23:58;;;;;;;19.85;8.52;;;5.40;99.90;;;;;;5017741;28;20487;-65
2020/12/21 03:26:26;;;;;;;23.48;9.15;;;5.50;99.90;;;;;;5034814;28;20030;-64
2020/12/21 03:28:51;;;;;;;20.70;8.77;;;5.50;99.90;;;;;;5033350;28;20286;-65
2020/12/21 03:31:17;;;;;;;20.85;8.52;;;5.60;99.90;;;;;;5017316;28;20025;-64
2020/12/21 03:33:43;;;;;;;20.45;8.38;;;5.60;99.90;;;;;;5035018;28;20073;-64
2020/12/21 03:36:08;;;;;;;21.50;9.38;;;5.50;99.90;;;;;;5034771;28;20029;-64
2020/12/21 03:38:35;;;;;;;21.13;9.27;;;5.60;99.90;;;;;;5034337;28;20097;-64
2020/12/21 03:41:00;;;;;;;21.35;8.50;;;5.50;99.90;;;;;;5017446;28;20030;-65
2020/12/21 03:43:26;;;;;;;19.73;9.05;;;5.60;99.90;;;;;;5035629;28;20380;-64
2020/12/21 03:45:52;;;;;;;20.45;9.02;;;5.60;99.90;;;;;;5035143;28;20055;-65
2020/12/21 03:48:17;;;;;;;20.95;8.30;;;5.60;99.90;;;;;;5032674;28;20044;-60
2020/12/21 03:50:43;;;;;;;19.55;9.25;;;5.70;99.90;;;;;;5034648;28;20060;-65
2020/12/21 03:53:09;;;;;;;25.02;9.32;;;5.70;99.90;;;;;;5017446;28;20039;-65
2020/12/21 03:55:35;;;;;;;21.73;8.60;;;5.60;99.90;;;;;;5034763;28;20045;-65
2020/12/21 03:58:01;;;;;;;20.75;8.93;;;5.60;99.90;;;;;;5033998;28;20029;-65
2020/12/21 04:00:26;;;;;;;23.45;8.50;;;5.60;99.90;;;;;;5016495;28;20033;-65
2020/12/21 04:02:52;;;;;;;24.05;9.57;;;5.80;99.90;;;;;;5034442;28;20030;-64
2020/12/21 04:05:18;;;;;;;20.83;8.25;;;5.70;99.90;;;;;;5034549;28;20021;-64
2020/12/21 04:07:44;;;;;;;20.73;11.13;;;5.70;99.90;;;;;;5032760;28;20037;-64
2020/12/21 04:10:10;;;;;;;24.33;9.05;;;5.70;99.90;;;;;;5034246;28;20484;-64
2020/12/21 04:12:36;;;;;;;22.58;8.70;;;5.60;99.90;;;;;;5016568;28;20029;-64
2020/12/21 04:15:04;;;;;;;18.23;8.35;;;5.60;99.90;;;;;;5034102;28;20033;-64
2020/12/21 04:17:30;;;;;;;22.60;9.25;;;5.60;99.90;;;;;;5033888;28;20032;-64
2020/12/21 04:19:56;;;;;;;20.02;9.10;;;5.50;99.90;;;;;;5016556;28;20412;-65
2020/12/21 04:22:21;;;;;;;21.55;8.07;;;5.50;99.90;;;;;;5016500;28;20029;-64
2020/12/21 04:24:47;;;;;;;18.77;9.00;;;5.50;99.90;;;;;;5016474;28;20029;-63
2020/12/21 04:27:13;;;;;;;23.50;10.13;;;5.40;99.90;;;;;;5032500;28;20022;-65
2020/12/21 04:29:38;;;;;;;22.58;9.48;;;5.40;99.90;;;;;;5015600;28;20039;-65
2020/12/21 04:32:05;;;;;;;19.35;9.35;;;5.40;99.90;;;;;;5033648;28;20347;-64
2020/12/21 04:34:31;;;;;;;21.70;9.40;;;5.30;99.90;;;;;;5034380;28;20532;-64
2020/12/21 04:36:57;;;;;;;20.85;9.00;;;5.30;99.90;;;;;;5033700;28;20072;-66
2020/12/21 04:39:22;;;;;;;21.63;9.38;;;5.30;99.90;;;;;;5015372;28;20025;-63
2020/12/21 04:41:56;;;;;;;26.02;10.35;;;5.30;99.90;;;;;;5033633;28;20024;-64
2020/12/21 04:44:23;;;;;;;19.88;9.18;;;5.20;99.90;;;;;;5033427;28;20432;-63
2020/12/21 04:46:52;;;;;;;23.40;9.07;;;5.20;99.90;;;;;;5032993;28;20029;-64
2020/12/21 04:49:19;;;;;;;27.23;10.20;;;5.20;99.90;;;;;;5033061;28;20025;-65
2020/12/21 04:51:47;;;;;;;20.17;8.57;;;5.20;99.90;;;;;;5015766;28;20540;-65
2020/12/21 04:54:13;;;;;;;24.02;10.15;;;5.20;99.90;;;;;;5033680;28;20034;-64
2020/12/21 04:56:41;;;;;;;21.67;9.43;;;5.10;99.90;;;;;;5015942;28;20052;-65
2020/12/21 04:59:08;;;;;;;23.95;9.80;;;5.10;99.90;;;;;;5031725;28;20022;-65
2020/12/21 05:01:34;;;;;;;18.70;9.55;;;5.10;99.90;;;;;;5033679;28;20021;-65
2020/12/21 05:04:00;;;;;;;23.40;9.38;;;5.10;99.90;;;;;;5015560;28;20411;-64
2020/12/21 05:06:26;;;;;;;19.58;9.77;;;5.10;99.90;;;;;;5032043;28;20532;-63
2020/12/21 05:09:08;;;;;;;19.05;9.70;;;5.10;99.90;;;;;;5032424;28;20040;-63
2020/12/21 05:11:35;;;;;;;27.48;11.55;;;5.10;99.90;;;;;;5032954;28;20029;-64
2020/12/21 05:14:11;;;;;;;22.80;10.07;;;5.10;99.90;;;;;;5015855;28;20033;-64
2020/12/21 05:16:38;;;;;;;22.90;10.32;;;5.10;99.90;;;;;;5016276;28;20025;-64
2020/12/21 05:19:07;;;;;;;19.15;9.50;;;5.10;99.90;;;;;;5033055;28;20407;-64
2020/12/21 05:21:32;;;;;;;22.85;9.85;;;5.10;99.90;;;;;;5015718;28;20075;-64
2020/12/21 05:24:01;;;;;;;22.17;10.43;;;5.20;99.90;;;;;;5033561;28;20425;-64
2020/12/21 05:26:33;;;;;;;21.00;10.88;;;5.30;99.90;;;;;;5015331;28;20052;-65
2020/12/21 05:29:00;;;;;;;25.35;9.60;;;5.30;99.90;;;;;;5032497;28;20090;-64
2020/12/21 05:31:28;;;;;;;19.60;9.43;;;5.30;99.90;;;;;;5032873;28;20030;-65
2020/12/21 05:33:53;;;;;;;19.30;8.82;;;5.30;99.90;;;;;;5032013;28;20036;-65
2020/12/21 05:36:22;;;;;;;23.13;9.18;;;5.30;99.90;;;;;;5015205;28;20021;-65
2020/12/21 05:39:01;;;;;;;23.92;8.88;;;5.30;99.90;;;;;;5015206;28;20030;-65
2020/12/21 05:41:27;;;;;;;20.50;8.98;;;5.30;99.90;;;;;;5032920;28;20018;-65
2020/12/21 05:43:54;;;;;;;24.08;9.95;;;5.20;99.90;;;;;;5032882;28;20072;-64
2020/12/21 05:46:23;;;;;;;23.98;9.57;;;5.10;99.90;;;;;;5033079;28;20477;-63
2020/12/21 05:48:52;;;;;;;21.58;9.35;;;5.20;99.90;;;;;;5032035;28;20034;-65
2020/12/21 05:51:32;;;;;;;25.77;10.40;;;5.30;99.90;;;;;;5032531;28;20060;-65
2020/12/21 05:54:02;;;;;;;21.23;10.60;;;5.20;99.90;;;;;;5014916;28;20100;-65
2020/12/21 05:56:31;;;;;;;20.45;10.40;;;5.30;99.90;;;;;;5032594;28;20025;-66
2020/12/21 05:58:57;;;;;;;;;;;5.30;99.90;;;;;;5033398;28;20025;-66
2020/12/21 06:01:23;;;;;;;17.30;9.25;;;5.30;99.90;;;;;;5033268;28;19906;-65
2020/12/21 06:03:58;;;;;;;22.67;9.50;;;5.20;99.90;;;;;;5032870;28;20477;-65
2020/12/21 06:06:33;;;;;;;18.52;9.02;;;5.20;99.90;;;;;;5015573;28;20030;-65
2020/12/21 06:09:04;;;;;;;20.63;9.30;;;5.20;99.90;;;;;;5032507;28;20030;-65
2020/12/21 06:11:32;;;;;;;22.85;9.50;;;5.20;99.90;;;;;;5032643;28;20021;-62
2020/12/21 06:14:04;;;;;;;19.17;8.93;;;5.10;99.90;;;;;;5032859;28;20108;-64
2020/12/21 06:16:32;;;;;;;22.58;9.38;;;5.10;99.90;;;;;;5033019;28;20025;-65
2020/12/21 06:19:01;;;;;;;20.10;9.15;;;5.00;99.90;;;;;;5032422;28;20400;-65
2020/12/21 06:21:32;;;;;;;17.83;9.63;;;4.90;99.90;;;;;;5017829;28;20396;-65
2020/12/21 06:23:58;;;;;;;21.27;10.98;;;4.90;99.90;;;;;;5036479;28;20021;-65
2020/12/21 06:26:32;;;;;;;22.58;9.95;;;5.00;99.90;;;;;;5036508;28;20026;-65
2020/12/21 06:29:00;;;;;;;28.10;11.38;;;5.00;99.90;;;;;;5035510;28;20029;-65
2020/12/21 06:31:45;;;;;;;18.75;10.35;;;5.10;99.90;;;;;;5017997;28;20033;-64
2020/12/21 06:34:17;;;;;;;21.52;10.88;;;5.10;99.90;;;;;;5036224;28;20021;-65
2020/12/21 06:36:45;;;;;;;21.20;10.00;;;5.10;99.90;;;;;;5035696;28;20381;-65
2020/12/21 06:39:24;;;;;;;21.55;10.23;;;5.00;99.90;;;;;;5035753;28;20437;-65
2020/12/21 06:42:07;;;;;;;19.13;9.65;;;4.90;99.90;;;;;;5035337;28;20084;-65
2020/12/21 06:44:36;;;;;;;21.38;9.30;;;4.80;99.90;;;;;;5034651;28;20021;-64
2020/12/21 06:47:01;;;;;;;17.83;9.18;;;4.80;99.90;;;;;;5048597;23;20024;-66
2020/12/21 06:49:27;;;;;;;21.02;9.10;;;4.80;99.90;;;;;;5051990;28;20033;-66
2020/12/21 06:51:53;;;;;;;20.92;9.13;;;4.80;99.90;;;;;;5050587;28;20069;-65
2020/12/21 06:54:20;;;;;;;22.33;9.77;;;4.80;99.90;;;;;;5052996;28;20028;-67
2020/12/21 06:56:47;;;;;;;22.38;10.68;;;4.80;99.90;;;;;;5051330;28;20029;-65
2020/12/21 06:59:17;;;;;;;18.63;9.30;;;4.80;99.90;;;;;;5052067;28;20075;-70
2020/12/21 07:01:45;;;;;;;19.65;9.93;;;4.80;99.90;;;;;;5052681;28;20065;-68
2020/12/21 07:04:29;;;;;;;22.30;10.38;;;4.80;99.90;;;;;;5051042;28;20434;-67
2020/12/21 07:07:03;;;;;;;19.70;10.02;;;4.90;99.90;;;;;;5052477;28;20040;-66
2020/12/21 07:09:36;;;;;;;20.30;10.02;;;5.00;99.90;;;;;;5051821;28;20374;-67
2020/12/21 07:12:07;;;;;;;21.38;9.52;;;5.10;99.90;;;;;;5052340;28;20047;-66
2020/12/21 07:14:40;;;;;;;18.25;9.02;;;5.00;99.90;;;;;;5050784;28;20036;-67
2020/12/21 07:17:16;;;;;;;19.35;9.18;;;5.00;99.90;;;;;;5052176;28;20377;-65
2020/12/21 07:19:43;;;;;;;19.45;10.40;;;5.00;99.90;;;;;;5051899;28;20018;-68
2020/12/21 07:22:11;;;;;;;21.17;9.10;;;5.00;99.90;;;;;;5052310;28;20509;-67
2020/12/21 07:24:39;;;;;;;20.02;9.30;;;5.00;99.90;;;;;;5052281;28;20369;-67
2020/12/21 07:27:05;;;;;;;22.55;10.93;;;5.00;99.90;;;;;;5050865;28;20025;-68
2020/12/21 07:29:35;;;;;;;18.77;9.05;;;5.00;99.90;;;;;;5050168;28;20043;-63
2020/12/21 07:32:01;;;;;;;24.45;8.73;;;5.10;99.90;;;;;;5049804;28;20029;-66
2020/12/21 07:34:27;;;;;;;21.98;8.65;;;5.10;99.90;;;;;;5050675;28;20045;-68
2020/12/21 07:36:53;;;;;;;19.05;8.70;;;5.20;99.90;;;;;;5050753;28;20064;-68
2020/12/21 07:39:20;;;;;;;17.30;8.00;;;5.10;99.90;;;;;;5051302;28;20112;-67
2020/12/21 07:41:47;;;;;;;16.77;8.40;;;5.30;99.90;;;;;;5050149;28;20515;-67
2020/12/21 07:44:14;;;;;;;19.88;8.73;;;5.20;99.90;;;;;;5050819;28;20101;-68
2020/12/21 07:47:19;;;;;;;21.10;9.25;;;5.20;99.90;;;;;;5050407;28;20028;-68
2020/12/21 07:49:46;;;;;;;24.33;8.38;;;5.20;99.90;;;;;;5051042;28;20037;-67
2020/12/21 07:52:15;;;;;;;17.67;8.48;;;5.10;99.90;;;;;;5050457;28;20108;-67
2020/12/21 07:54:45;;;;;;;22.50;9.20;;;5.00;99.90;;;;;;5051613;28;20025;-67
2020/12/21 07:57:12;;;;;;;18.77;9.75;;;5.00;99.90;;;;;;5051487;28;20108;-67
2020/12/21 07:59:38;;;;;;;20.30;9.85;;;5.00;99.90;;;;;;5050863;28;20036;-68
2020/12/21 08:02:05;;;;;;;18.20;8.95;;;5.00;99.90;;;;;;5051659;28;20089;-68
2020/12/21 08:04:31;;;;;;;22.00;8.18;;;5.00;99.90;;;;;;5051487;28;20040;-69
2020/12/21 08:07:13;;;;;;;22.10;10.40;;;5.20;99.90;;;;;;5051418;28;20389;-67
2020/12/21 08:09:39;;;;;;;19.27;8.90;;;5.10;99.90;;;;;;5050466;28;20021;-67
2020/12/21 08:12:13;;;;;;;18.65;8.45;;;5.20;99.90;;;;;;5051287;28;20139;-67
2020/12/21 08:14:39;;;;;;;22.77;8.85;;;5.30;99.90;;;;;;5051112;28;20039;-67
2020/12/21 08:17:18;;;;;;;19.00;7.88;;;5.40;99.90;;;;;;5049407;28;20488;-68
2020/12/21 08:19:54;;;;;;;18.92;8.23;;;5.40;99.90;;;;;;5050330;28;20075;-66
2020/12/21 08:22:30;;;;;;;15.15;7.60;;;5.30;99.90;;;;;;5049721;28;20021;-66
2020/12/21 08:25:13;;;;;;;17.08;7.90;;;5.30;99.90;;;;;;5049498;28;20078;-68
2020/12/21 08:27:43;;;;;;;21.77;8.80;;;5.40;99.90;;;;;;5050528;28;20155;-67
2020/12/21 08:30:12;;;;;;;21.67;8.63;;;5.40;99.90;;;;;;5050292;28;20029;-68
2020/12/21 08:32:39;;;;;;;18.45;8.10;;;5.40;99.90;;;;;;5050607;28;20439;-67
2020/12/21 08:35:06;;;;;;;17.10;8.02;;;5.50;99.90;;;;;;5049047;28;20118;-68
2020/12/21 08:37:33;;;;;;;19.15;8.20;;;5.70;99.90;;;;;;5050241;28;20021;-66
2020/12/21 08:40:09;;;;;;;19.30;8.40;;;5.70;99.90;;;;;;5049971;28;20086;-64
2020/12/21 08:42:35;;;;;;;18.42;8.00;;;5.90;99.90;;;;;;5050351;28;20100;-66
2020/12/21 08:45:01;;;;;;;18.80;8.63;;;6.00;99.90;;;;;;5050177;28;20124;-66
2020/12/21 08:47:27;;;;;;;18.20;7.90;;;6.00;99.90;;;;;;5039416;28;20076;-65
2020/12/21 08:49:53;;;;;;;22.35;8.65;;;6.00;99.90;;;;;;5040706;28;20033;-65
2020/12/21 08:52:19;;;;;;;18.58;8.05;;;6.00;99.90;;;;;;5030263;28;20374;-66
2020/12/21 08:54:44;;;;;;;17.00;8.65;;;6.10;99.90;;;;;;5037588;28;20025;-66
2020/12/21 08:57:10;;;;;;;15.40;7.47;;;6.10;99.90;;;;;;5048710;28;20079;-66
2020/12/21 08:59:37;;;;;;;18.17;8.18;;;6.10;99.90;;;;;;5048551;28;20025;-67
2020/12/21 09:02:03;;;;;;;21.23;9.82;;;6.10;99.90;;;;;;5050298;28;20017;-66
2020/12/21 09:04:29;;;;;;;20.13;8.43;;;6.30;99.90;;;;;;5032852;28;20068;-66
2020/12/21 09:06:55;;;;;;;16.52;8.05;;;6.20;99.90;;;;;;5030342;28;20030;-66
2020/12/21 09:09:22;;;;;;;16.50;8.07;;;6.30;99.90;;;;;;5029479;28;20473;-66
2020/12/21 09:11:55;;;;;;;23.00;8.23;;;6.30;99.90;;;;;;5030039;28;20032;-68
2020/12/21 09:14:24;;;;;;;17.90;7.45;;;6.30;99.90;;;;;;5030409;28;20063;-66
2020/12/21 09:16:51;;;;;;;19.90;7.82;;;6.40;99.90;;;;;;5028891;28;20069;-68
2020/12/21 09:19:18;;;;;;;19.02;8.13;;;6.40;99.90;;;;;;5028378;28;20025;-64
2020/12/21 09:21:44;;;;;;;15.77;7.95;;;6.50;99.90;;;;;;5049154;28;20553;-65
2020/12/21 09:24:10;;;;;;;19.13;8.40;;;6.60;99.90;;;;;;5049882;28;20029;-63
2020/12/21 09:26:36;;;;;;;17.40;7.78;;;6.60;99.90;;;;;;5050160;28;20124;-66
2020/12/21 09:29:02;;;;;;;19.83;8.85;;;6.70;99.90;;;;;;5049102;28;20029;-66
2020/12/21 09:31:29;;;;;;;18.00;7.90;;;6.70;99.90;;;;;;5049834;28;20029;-65
2020/12/21 09:33:54;;;;;;;19.13;7.93;;;6.70;99.90;;;;;;5049761;28;20392;-66
2020/12/21 09:36:21;;;;;;;24.70;8.75;;;6.80;99.90;;;;;;5049655;28;20029;-66
2020/12/21 09:38:50;;;;;;;21.75;8.13;;;6.80;99.90;;;;;;5047660;28;20021;-63
2020/12/21 09:41:19;;;;;;;18.50;8.70;;;6.90;99.90;;;;;;5050013;28;20047;-65
2020/12/21 09:43:49;;;;;;;18.27;8.00;;;7.00;99.90;;;;;;5048428;28;20071;-66
2020/12/21 09:46:19;;;;;;;17.08;7.88;;;7.00;99.90;;;;;;5043643;28;20065;-65
2020/12/21 09:48:46;;;;;;;18.15;8.20;;;7.10;99.90;;;;;;5029012;28;20079;-64
2020/12/21 09:51:12;;;;;;;16.48;8.00;;;7.20;99.90;;;;;;5028306;28;20030;-66
2020/12/21 09:53:39;;;;;;;16.35;7.85;;;7.20;99.90;;;;;;5029618;28;20025;-65
2020/12/21 09:56:04;;;;;;;16.67;7.88;;;7.30;99.90;;;;;;5031939;28;20576;-65
2020/12/21 09:58:30;;;;;;;21.13;7.60;;;7.30;99.90;;;;;;5031590;28;20351;-65
2020/12/21 10:00:55;;;;;;;20.88;8.20;;;7.30;99.90;;;;;;5049622;28;20385;-65
2020/12/21 10:03:21;;;;;;;20.40;7.90;;;7.40;99.90;;;;;;5053852;28;20025;-65
2020/12/21 10:05:47;;;;;;;22.27;8.40;;;7.50;99.90;;;;;;5051675;28;20084;-64
2020/12/21 10:08:12;;;;;;;16.55;7.90;;;7.50;99.90;;;;;;5053307;28;20105;-64
2020/12/21 10:10:38;;;;;;;18.85;9.68;;;7.50;99.90;;;;;;5051132;28;20098;-65
2020/12/21 10:13:04;;;;;;;19.42;8.45;;;7.50;99.90;;;;;;5053483;28;20110;-63
2020/12/21 10:15:30;;;;;;;22.83;9.20;;;7.60;99.90;;;;;;5052842;28;20088;-65
2020/12/21 10:17:55;;;;;;;22.25;8.45;;;7.60;99.90;;;;;;5052852;28;20029;-68
2020/12/21 10:20:21;;;;;;;16.23;7.53;;;7.70;99.90;;;;;;5046658;28;20017;-57
2020/12/21 10:22:47;;;;;;;18.25;7.90;;;7.70;99.90;;;;;;5032811;28;20091;-61
2020/12/21 10:25:12;;;;;;;21.83;8.30;;;7.70;99.90;;;;;;5033026;28;20061;-60
2020/12/21 10:27:38;;;;;;;24.52;9.25;;;7.70;99.90;;;;;;5032475;28;20499;-60
2020/12/21 10:30:04;;;;;;;22.35;7.75;;;7.70;99.90;;;;;;5032139;28;20091;-59
2020/12/21 10:32:29;;;;;;;19.45;8.18;;;7.80;99.90;;;;;;5044653;28;20029;-58
2020/12/21 10:34:55;;;;;;;21.02;8.70;;;7.80;99.90;;;;;;5037335;28;20025;-60
2020/12/21 10:37:21;;;;;;;18.67;8.52;;;7.80;99.90;;;;;;5033212;28;20029;-60
2020/12/21 10:39:47;;;;;;;18.50;7.88;;;7.80;99.90;;;;;;5047259;28;20025;-56
2020/12/21 10:42:12;;;;;;;19.85;9.25;;;7.90;99.90;;;;;;5051354;28;20067;-58
2020/12/21 10:44:38;;;;;;;22.67;9.60;;;7.90;99.90;;;;;;5053152;28;20128;-62
2020/12/21 10:47:04;;;;;;;22.15;8.88;;;8.00;99.90;;;;;;5040762;28;20473;-59
2020/12/21 10:49:30;;;;;;;21.95;8.43;;;8.00;99.90;;;;;;5044923;28;20147;-61
2020/12/21 10:51:56;;;;;;;18.55;8.30;;;8.00;99.90;;;;;;5041858;28;20034;-59
2020/12/21 10:54:22;;;;;;;20.27;9.23;;;8.00;99.90;;;;;;5032009;28;20125;-61
2020/12/21 10:56:51;;;;;;;19.42;8.05;;;8.00;99.90;;;;;;5031853;28;20049;-61
2020/12/21 10:59:17;;;;;;;21.08;9.30;;;8.10;99.90;;;;;;5031409;28;20030;-59
2020/12/21 11:01:46;;;;;;;20.15;8.93;;;8.00;99.90;;;;;;5032568;28;20033;-62
2020/12/21 11:04:12;;;;;;;17.45;7.82;;;8.00;99.90;;;;;;5030189;28;20022;-59
2020/12/21 11:06:38;;;;;;;16.35;7.90;;;8.00;99.90;;;;;;5028161;28;20037;-60
2020/12/21 11:09:04;;;;;;;18.13;8.00;;;8.10;99.90;;;;;;5031402;28;20500;-61
2020/12/21 11:11:31;;;;;;;18.17;8.13;;;8.00;99.90;;;;;;5032483;28;20033;-61
2020/12/21 11:13:59;;;;;;;19.30;8.00;;;8.00;99.90;;;;;;5032421;28;20030;-61
2020/12/21 11:16:25;;;;;;;18.02;7.95;;;8.00;99.90;;;;;;5032412;28;20021;-59
2020/12/21 11:18:51;;;;;;;17.92;7.97;;;8.00;99.90;;;;;;5031338;28;20126;-59
2020/12/21 11:21:17;;;;;;;19.42;7.82;;;8.10;99.90;;;;;;5030765;28;20022;-60
2020/12/21 11:23:43;;;;;;;16.67;7.63;;;8.10;99.90;;;;;;5030139;28;20025;-60
2020/12/21 11:26:12;;;;;;;17.02;7.18;;;8.10;99.90;;;;;;5032079;28;20144;-60
2020/12/21 11:28:38;;;;;;;18.60;7.70;;;8.20;99.90;;;;;;5031246;28;20061;-59
2020/12/21 11:31:03;;;;;;;16.17;7.20;;;8.30;99.90;;;;;;5031924;28;20399;-60
2020/12/21 11:33:29;;;;;;;18.88;7.88;;;8.30;99.90;;;;;;5031570;28;20033;-59
2020/12/21 11:35:56;;;;;;;19.25;9.02;;;8.30;99.90;;;;;;5030270;28;20128;-59
2020/12/21 11:38:22;;;;;;;17.65;7.28;;;8.40;99.90;;;;;;5030898;28;20435;-59
2020/12/21 11:40:48;;;;;;;17.92;7.22;;;8.40;99.90;;;;;;5031392;28;20065;-59
2020/12/21 11:43:14;;;;;;;17.45;7.07;;;8.40;99.90;;;;;;5031579;28;20029;-60
2020/12/21 11:45:41;;;;;;;21.58;7.93;;;8.50;99.90;;;;;;5031394;28;20322;-59
2020/12/21 11:48:06;;;;;;;18.50;7.25;;;8.50;99.90;;;;;;5031320;28;20040;-61
2020/12/21 11:50:32;;;;;;;16.73;7.95;;;8.50;99.90;;;;;;5046401;28;20093;-61
2020/12/21 11:52:58;;;;;;;18.60;7.25;;;8.50;99.90;;;;;;5031192;28;20116;-61
2020/12/21 11:55:23;;;;;;;21.98;9.80;;;8.60;99.90;;;;;;5031855;28;20373;-60
2020/12/21 11:57:49;;;;;;;20.67;7.60;;;8.60;99.90;;;;;;5031428;28;20043;-59
2020/12/21 12:00:15;;;;;;;19.02;7.60;;;8.60;99.90;;;;;;5032262;28;20017;-61
2020/12/21 12:02:41;;;;;;;16.20;8.13;;;8.60;99.90;;;;;;5032094;28;20022;-61
2020/12/21 12:05:11;;;;;;;16.40;7.32;;;8.60;99.90;;;;;;5029379;28;20033;-60
2020/12/21 12:07:37;;;;;;;22.08;10.27;;;8.60;99.90;;;;;;5040498;28;20151;-60
2020/12/21 12:10:04;;;;;;;18.10;8.13;;;8.60;99.90;;;;;;5048142;28;20150;-59
2020/12/21 12:12:29;;;;;;;18.00;7.85;;;8.60;99.90;;;;;;5045013;28;20025;-58
2020/12/21 12:14:55;;;;;;;22.67;8.57;;;8.60;99.90;;;;;;5031278;28;20036;-58
2020/12/21 12:17:21;;;;;;;20.38;8.68;;;8.60;99.90;;;;;;5033724;28;20096;-59
2020/12/21 12:19:46;;;;;;;21.27;8.20;;;8.60;99.90;;;;;;5040187;28;20131;-60
2020/12/21 12:22:12;;;;;;;20.40;8.55;;;8.60;99.90;;;;;;5030886;28;20028;-59
2020/12/21 12:24:38;;;;;;;19.20;9.13;;;8.60;99.90;;;;;;5045685;28;20033;-60
2020/12/21 12:27:04;;;;;;;19.15;8.43;;;8.60;99.90;;;;;;5035206;28;20077;-56
2020/12/21 12:29:30;;;;;;;17.02;8.00;;;8.60;99.90;;;;;;4688481;28;9999802;-61
2020/12/21 12:31:56;;;;;;;19.42;8.35;;;8.60;99.90;;;;;;5029307;28;20030;-60
2020/12/21 12:34:22;;;;;;;17.45;8.07;;;8.70;99.90;;;;;;5032332;28;20059;-61
2020/12/21 12:36:48;;;;;;;18.08;8.85;;;8.60;99.90;;;;;;5040952;28;20024;-61
2020/12/21 12:39:13;;;;;;;21.05;8.30;;;8.70;99.90;;;;;;5046162;28;20048;-58
2020/12/21 12:41:40;;;;;;;20.02;8.52;;;8.60;99.90;;;;;;5042384;28;20032;-58
2020/12/21 12:44:07;;;;;;;16.42;8.68;;;8.70;99.90;;;;;;5033635;28;20172;-58
2020/12/21 12:46:33;;;;;;;17.38;8.63;;;8.60;99.90;;;;;;5041756;28;20028;-59